Terminal Aerodrome Forecast
Issued by NWS

Home | Current Version | Previous Version | Text Only | Print | Product List | Glossary On
Versions: 1 2 3 4 5 6 7 8 9 10 11 12 13 14 15 16 17 18 19
000
FTUS43 KDMX 021739 CCA
TAFFOD
TAF COR
KFOD 021739Z 0218/0318 34006KT P6SM SCT030 OVC040
      TEMPO 0218/0222 BKN019
     FM030900 VRB02KT P6SM OVC025
     FM031600 20006KT P6SM SCT050 OVC070=

USA.gov is the U.S. government's official web portal to all federal, state and local government web resources and services.